Time;durP1;ratioP1;P1;durP2;ratioP2;P2;SDS_P1;SDS_P2;PMS_P1;PMS_P2;Temp;Humidity;BMP_temperature;BMP_pressure;BME280_temperature;BME280_humidity;BME280_pressure;Samples;Min_cycle;Max_cycle;Signal;HPM_P1;HPM_P2
2021/04/16 00:00:08;;;;;;;7.90;6.53;;;5.80;86.20;;;;;;5038806;28;20689;-82
2021/04/16 00:02:35;;;;;;;8.73;6.90;;;5.80;86.30;;;;;;5038010;28;20242;-83
2021/04/16 00:05:04;;;;;;;7.33;6.50;;;5.80;86.50;;;;;;5039829;28;20215;-83
2021/04/16 00:07:30;;;;;;;10.50;6.87;;;5.80;86.60;;;;;;5019978;28;20729;-83
2021/04/16 00:09:59;;;;;;;7.43;6.37;;;5.80;86.50;;;;;;5037257;28;20219;-83
2021/04/16 00:12:27;;;;;;;6.07;5.47;;;5.80;86.60;;;;;;5040017;28;20547;-82
2021/04/16 00:14:54;;;;;;;6.07;5.23;;;5.70;86.70;;;;;;5042216;28;20265;-81
2021/04/16 00:17:21;;;;;;;10.90;6.53;;;5.80;86.70;;;;;;5044806;28;20211;-83
2021/04/16 00:19:49;;;;;;;6.13;5.50;;;5.70;86.70;;;;;;5045395;28;20347;-84
2021/04/16 00:22:16;;;;;;;9.40;7.13;;;5.70;86.80;;;;;;5043462;28;20211;-83
2021/04/16 00:24:43;;;;;;;8.80;6.97;;;5.80;86.80;;;;;;5043516;28;20218;-83
2021/04/16 00:27:10;;;;;;;11.13;7.40;;;5.70;86.50;;;;;;5037936;28;20203;-83
2021/04/16 00:29:38;;;;;;;10.67;7.37;;;5.70;86.30;;;;;;5039617;28;20294;-83
2021/04/16 00:32:05;;;;;;;10.10;7.53;;;5.60;86.20;;;;;;5034793;28;20227;-83
2021/04/16 00:34:32;;;;;;;8.97;6.57;;;5.60;86.30;;;;;;5037854;28;20219;-83
2021/04/16 00:36:59;;;;;;;11.97;6.73;;;5.60;86.50;;;;;;5036138;28;20276;-83
2021/04/16 00:39:28;;;;;;;10.63;7.73;;;5.60;86.50;;;;;;5037466;28;20227;-83
2021/04/16 00:41:55;;;;;;;9.13;6.77;;;5.60;86.60;;;;;;5036629;28;20250;-83
2021/04/16 00:44:22;;;;;;;10.67;7.50;;;5.50;86.50;;;;;;5035299;28;20208;-83
2021/04/16 00:46:56;;;;;;;10.60;7.10;;;5.50;86.50;;;;;;5038171;28;20219;-83
2021/04/16 00:49:31;;;;;;;8.03;6.53;;;5.40;86.40;;;;;;5038009;28;20222;-83
2021/04/16 00:52:01;;;;;;;11.47;6.60;;;5.40;86.50;;;;;;5029710;28;20220;-82
2021/04/16 00:54:38;;;;;;;7.33;6.40;;;5.40;86.50;;;;;;5036750;28;20238;-82
2021/04/16 00:57:07;;;;;;;8.57;6.60;;;5.40;86.50;;;;;;5040855;28;20230;-83
2021/04/16 00:59:37;;;;;;;6.17;5.57;;;5.30;86.30;;;;;;5036476;28;20362;-83
2021/04/16 01:02:05;;;;;;;7.10;6.30;;;5.30;86.20;;;;;;5023942;28;20271;-83
2021/04/16 01:04:33;;;;;;;6.90;6.10;;;5.20;86.10;;;;;;5036673;28;20211;-81
2021/04/16 01:07:02;;;;;;;8.97;6.53;;;5.10;86.30;;;;;;5032376;28;20235;-83
2021/04/16 01:09:30;;;;;;;12.17;7.27;;;5.10;86.50;;;;;;5019158;28;20215;-83
2021/04/16 01:11:58;;;;;;;9.17;6.87;;;5.10;86.70;;;;;;5023840;28;20222;-83
2021/04/16 01:14:25;;;;;;;9.17;7.40;;;5.00;86.80;;;;;;5034177;28;20227;-83
2021/04/16 01:16:51;;;;;;;7.80;6.50;;;5.00;86.90;;;;;;5020846;28;20443;-83
2021/04/16 01:19:29;;;;;;;10.90;6.97;;;5.00;86.90;;;;;;5036594;28;20285;-83
2021/04/16 01:22:20;;;;;;;9.37;7.00;;;5.00;86.90;;;;;;5021511;28;20700;-80
2021/04/16 01:24:51;;;;;;;9.77;6.07;;;5.00;86.90;;;;;;5037053;28;20204;-83
2021/04/16 01:27:18;;;;;;;8.60;6.60;;;5.00;86.90;;;;;;5037768;28;20219;-83
2021/04/16 01:29:46;;;;;;;9.10;6.83;;;4.90;86.80;;;;;;5038241;28;20215;-82
2021/04/16 01:32:24;;;;;;;8.87;6.80;;;4.90;86.90;;;;;;5016100;28;20226;-82
2021/04/16 01:34:52;;;;;;;8.27;6.30;;;4.90;87.20;;;;;;5015514;28;20270;-83
2021/04/16 01:37:20;;;;;;;7.37;5.73;;;4.80;87.30;;;;;;5016507;28;20213;-83
2021/04/16 01:39:47;;;;;;;7.87;6.67;;;4.70;87.10;;;;;;5018757;28;20243;-83
2021/04/16 01:42:14;;;;;;;10.53;7.20;;;4.60;87.00;;;;;;5018898;28;20223;-83
2021/04/16 01:44:45;;;;;;;10.20;6.73;;;4.50;87.50;;;;;;5035284;28;20218;-82
2021/04/16 01:47:14;;;;;;;8.27;6.90;;;4.50;87.80;;;;;;5003576;28;20207;-83
2021/04/16 01:49:49;;;;;;;10.20;6.83;;;4.50;87.80;;;;;;5019410;28;20596;-82
2021/04/16 01:52:32;;;;;;;9.00;6.83;;;4.50;87.90;;;;;;5036437;28;20215;-82
2021/04/16 01:54:59;;;;;;;7.93;6.10;;;4.50;88.00;;;;;;5015936;28;20254;-82
2021/04/16 01:57:36;;;;;;;8.27;7.40;;;4.50;88.00;;;;;;5036261;28;20226;-82
2021/04/16 02:00:12;;;;;;;9.17;6.80;;;4.50;88.00;;;;;;5017307;28;20227;-83
2021/04/16 02:02:39;;;;;;;8.87;7.00;;;4.50;88.00;;;;;;5034617;28;20271;-81
2021/04/16 02:05:08;;;;;;;8.20;6.83;;;4.50;88.00;;;;;;5014796;28;20292;-82
2021/04/16 02:07:35;;;;;;;10.27;7.37;;;4.50;88.10;;;;;;5028490;28;20253;-82
2021/04/16 02:10:05;;;;;;;10.77;7.20;;;4.50;88.10;;;;;;5035967;28;20218;-83
2021/04/16 02:12:33;;;;;;;11.27;7.03;;;4.40;88.20;;;;;;5034112;28;20655;-83
2021/04/16 02:15:00;;;;;;;7.67;6.57;;;4.40;88.20;;;;;;5026692;28;20222;-83
2021/04/16 02:17:28;;;;;;;8.37;7.37;;;4.40;88.20;;;;;;5032573;28;20214;-83
2021/04/16 02:19:58;;;;;;;10.47;8.10;;;4.50;88.30;;;;;;5034836;28;20326;-83
2021/04/16 02:22:28;;;;;;;17.23;8.30;;;4.50;88.40;;;;;;5017574;28;20282;-83
2021/04/16 02:24:56;;;;;;;11.80;7.97;;;4.50;88.30;;;;;;5032805;28;20211;-83
2021/04/16 02:27:26;;;;;;;10.97;7.10;;;4.50;88.20;;;;;;5035720;28;20241;-83
2021/04/16 02:29:55;;;;;;;10.40;8.33;;;4.60;88.20;;;;;;5030158;28;20214;-83
2021/04/16 02:32:22;;;;;;;7.40;6.70;;;4.60;88.10;;;;;;5028264;28;20229;-83
2021/04/16 02:34:50;;;;;;;9.13;6.97;;;4.60;87.70;;;;;;5028946;28;20218;-83
2021/04/16 02:37:19;;;;;;;8.37;6.20;;;4.60;87.50;;;;;;5026830;28;20210;-83
2021/04/16 02:39:46;;;;;;;10.17;7.87;;;4.60;87.40;;;;;;5029506;28;20261;-83
2021/04/16 02:42:13;;;;;;;11.57;6.83;;;4.60;87.40;;;;;;5048172;28;20242;-82
2021/04/16 02:44:42;;;;;;;11.97;7.70;;;4.60;87.40;;;;;;5028609;28;20208;-81
2021/04/16 02:47:10;;;;;;;10.73;7.20;;;4.50;87.40;;;;;;5033749;28;20222;-83
2021/04/16 02:49:37;;;;;;;9.37;7.97;;;4.60;87.50;;;;;;5032278;28;20214;-83
2021/04/16 02:52:05;;;;;;;12.00;7.20;;;4.50;87.40;;;;;;5031958;28;20249;-83
2021/04/16 02:54:32;;;;;;;12.83;7.63;;;4.50;87.40;;;;;;5034433;28;20215;-83
2021/04/16 02:56:59;;;;;;;9.53;7.33;;;4.50;87.40;;;;;;5031020;28;20231;-83
2021/04/16 02:59:27;;;;;;;9.40;7.67;;;4.50;87.40;;;;;;5023149;28;20211;-82
2021/04/16 03:01:54;;;;;;;9.07;6.83;;;4.50;87.50;;;;;;5031663;28;20343;-81
2021/04/16 03:04:21;;;;;;;11.37;7.93;;;4.40;87.20;;;;;;5035677;28;20221;-82
2021/04/16 03:06:48;;;;;;;8.17;7.13;;;4.40;87.10;;;;;;5028954;28;20254;-83
2021/04/16 03:09:15;;;;;;;7.67;6.60;;;4.30;87.30;;;;;;5035322;28;20560;-82
2021/04/16 03:11:42;;;;;;;9.03;6.20;;;4.30;87.30;;;;;;5018875;28;20211;-82
2021/04/16 03:14:10;;;;;;;9.77;7.27;;;4.20;86.80;;;;;;5034271;28;20218;-83
2021/04/16 03:16:37;;;;;;;8.97;7.23;;;4.10;86.70;;;;;;5015599;28;20212;-82
2021/04/16 03:19:06;;;;;;;7.10;6.03;;;4.00;87.40;;;;;;5029396;28;20227;-83
2021/04/16 03:21:33;;;;;;;9.03;6.60;;;3.90;87.00;;;;;;5037725;28;20670;-83
2021/04/16 03:24:00;;;;;;;10.13;7.47;;;3.80;87.20;;;;;;5024133;28;20223;-83
2021/04/16 03:26:27;;;;;;;9.27;7.30;;;3.70;87.40;;;;;;5038865;28;20225;-83
2021/04/16 03:28:57;;;;;;;11.00;7.27;;;3.70;87.70;;;;;;5019667;28;20295;-82
2021/04/16 03:31:25;;;;;;;9.17;7.10;;;3.60;88.50;;;;;;5006656;28;20233;-82
2021/04/16 03:33:54;;;;;;;14.50;8.00;;;3.70;88.20;;;;;;5022915;28;20547;-82
2021/04/16 03:36:21;;;;;;;8.83;7.50;;;3.60;88.20;;;;;;5035779;28;20211;-82
2021/04/16 03:38:48;;;;;;;8.77;7.07;;;3.60;88.30;;;;;;5039490;28;20217;-82
2021/04/16 03:41:16;;;;;;;9.73;7.50;;;3.60;88.30;;;;;;5040374;28;20234;-82
2021/04/16 03:43:44;;;;;;;11.13;7.70;;;3.60;88.40;;;;;;5040319;28;20226;-82
2021/04/16 03:46:11;;;;;;;10.17;7.50;;;3.60;88.50;;;;;;5022998;28;20207;-82
2021/04/16 03:48:41;;;;;;;11.57;7.33;;;3.60;88.50;;;;;;5020877;28;20213;-82
2021/04/16 03:51:09;;;;;;;7.10;5.93;;;3.50;88.40;;;;;;5040075;28;20215;-82
2021/04/16 03:53:38;;;;;;;6.97;6.27;;;3.40;88.20;;;;;;5017223;28;20554;-83
2021/04/16 03:56:08;;;;;;;9.13;6.87;;;3.40;88.30;;;;;;5019125;28;20753;-82
2021/04/16 03:58:38;;;;;;;10.57;7.23;;;3.30;88.40;;;;;;5021974;28;20642;-82
2021/04/16 04:01:06;;;;;;;13.33;9.40;;;3.30;88.50;;;;;;5019801;28;20255;-83
2021/04/16 04:03:34;;;;;;;13.20;8.83;;;3.20;88.40;;;;;;5021630;28;20215;-82
2021/04/16 04:06:03;;;;;;;13.13;9.13;;;3.20;88.60;;;;;;5024511;28;20296;-83
2021/04/16 04:08:30;;;;;;;13.73;9.73;;;3.10;88.80;;;;;;5052735;28;20211;-81
2021/04/16 04:10:57;;;;;;;15.70;9.67;;;3.00;89.20;;;;;;5040547;28;20305;-83
2021/04/16 04:13:24;;;;;;;13.30;9.63;;;2.90;89.60;;;;;;5054604;28;20219;-82
2021/04/16 04:15:50;;;;;;;10.40;8.43;;;2.90;90.00;;;;;;5040390;28;20317;-83
2021/04/16 04:18:28;;;;;;;11.97;9.33;;;2.90;90.10;;;;;;5050205;28;20210;-82
2021/04/16 04:20:56;;;;;;;11.73;9.13;;;3.00;90.20;;;;;;5057237;28;20230;-82
2021/04/16 04:23:22;;;;;;;12.70;9.47;;;3.00;90.20;;;;;;5058997;28;20210;-83
2021/04/16 04:25:49;;;;;;;11.50;9.33;;;3.10;90.20;;;;;;5055165;28;20213;-82
2021/04/16 04:28:16;;;;;;;11.80;9.17;;;3.20;90.20;;;;;;5040144;28;20202;-83
2021/04/16 04:30:43;;;;;;;14.87;9.47;;;3.20;90.20;;;;;;5030621;28;20223;-82
2021/04/16 04:33:10;;;;;;;12.43;8.90;;;3.20;90.20;;;;;;5054810;28;20298;-82
2021/04/16 04:35:37;;;;;;;14.03;9.33;;;3.30;90.30;;;;;;5031136;28;20211;-82
2021/04/16 04:38:05;;;;;;;10.67;8.77;;;3.30;90.20;;;;;;5046668;28;20237;-83
2021/04/16 04:40:33;;;;;;;13.67;9.87;;;3.30;90.30;;;;;;5041071;28;20313;-82
2021/04/16 04:43:00;;;;;;;10.47;9.00;;;3.40;90.20;;;;;;5040764;28;20206;-83
2021/04/16 04:45:27;;;;;;;14.60;9.67;;;3.40;90.20;;;;;;5022941;28;20316;-82
2021/04/16 04:47:54;;;;;;;14.80;9.73;;;3.40;90.20;;;;;;5050127;28;20292;-81
2021/04/16 04:50:25;;;;;;;14.57;9.80;;;3.50;90.10;;;;;;5056244;28;20635;-81
2021/04/16 04:52:53;;;;;;;12.77;9.30;;;3.40;90.10;;;;;;5058116;28;20264;-83
2021/04/16 04:55:24;;;;;;;11.93;8.70;;;3.50;90.20;;;;;;5053678;28;20215;-82
2021/04/16 04:57:51;;;;;;;13.73;8.43;;;3.50;90.20;;;;;;5041251;28;20204;-82
2021/04/16 05:00:19;;;;;;;12.30;8.23;;;3.60;90.10;;;;;;5040629;28;20236;-81
2021/04/16 05:02:46;;;;;;;10.13;8.03;;;3.70;90.00;;;;;;5038303;28;20681;-80
2021/04/16 05:05:15;;;;;;;15.23;8.40;;;3.70;90.00;;;;;;5040526;28;20555;-82
2021/04/16 05:07:43;;;;;;;14.37;7.87;;;3.80;90.00;;;;;;5043202;28;20972;-82
2021/04/16 05:10:11;;;;;;;13.27;8.43;;;4.00;90.00;;;;;;5030612;28;20215;-83
2021/04/16 05:12:38;;;;;;;10.50;8.50;;;4.10;90.00;;;;;;5035717;28;20214;-82
2021/04/16 05:15:06;;;;;;;11.10;7.67;;;4.30;90.00;;;;;;5035749;28;20841;-83
2021/04/16 05:17:33;;;;;;;10.70;7.73;;;4.50;90.10;;;;;;5025283;28;20219;-82
2021/04/16 05:20:00;;;;;;;10.13;7.97;;;4.80;90.10;;;;;;5031628;28;20228;-81
2021/04/16 05:22:27;;;;;;;9.70;7.20;;;5.10;89.80;;;;;;5028556;28;20208;-82
2021/04/16 05:24:54;;;;;;;9.77;7.10;;;5.40;88.80;;;;;;5036159;28;20522;-82
2021/04/16 05:27:24;;;;;;;11.00;8.37;;;5.70;87.80;;;;;;5030574;28;20647;-82
2021/04/16 05:29:50;;;;;;;12.43;7.63;;;6.00;86.90;;;;;;5035857;28;20219;-82
2021/04/16 05:32:17;;;;;;;8.27;7.37;;;6.40;85.90;;;;;;5025658;28;20211;-83
2021/04/16 05:34:45;;;;;;;8.57;7.33;;;6.70;84.80;;;;;;5026218;28;20536;-82
2021/04/16 05:37:24;;;;;;;8.67;7.40;;;6.90;83.60;;;;;;5033530;28;20277;-83
2021/04/16 05:39:51;;;;;;;9.57;7.27;;;7.10;81.60;;;;;;5035370;28;20246;-83
2021/04/16 05:42:19;;;;;;;10.20;8.20;;;7.20;81.50;;;;;;5036542;28;20225;-82
2021/04/16 05:44:46;;;;;;;10.67;8.27;;;7.30;81.00;;;;;;5022580;28;20294;-82
2021/04/16 05:47:30;;;;;;;12.83;8.80;;;7.30;80.50;;;;;;5029506;28;20216;-83
2021/04/16 05:49:58;;;;;;;11.47;8.70;;;7.40;80.80;;;;;;5021598;28;20210;-83
2021/04/16 05:52:25;;;;;;;12.43;8.53;;;7.60;80.80;;;;;;5030325;28;20230;-83
2021/04/16 05:54:52;;;;;;;13.80;9.63;;;7.70;79.80;;;;;;5028503;28;20219;-83
2021/04/16 05:57:20;;;;;;;22.47;10.00;;;7.70;79.40;;;;;;5035662;28;20243;-83
2021/04/16 05:59:47;;;;;;;12.20;9.83;;;7.70;79.30;;;;;;5034860;28;20238;-83
2021/04/16 06:02:27;;;;;;;12.47;9.70;;;7.80;79.80;;;;;;5028282;28;20225;-83
2021/04/16 06:04:55;;;;;;;16.27;9.23;;;8.00;79.40;;;;;;5036865;28;20215;-83
2021/04/16 06:07:23;;;;;;;12.57;9.47;;;8.20;79.20;;;;;;5021276;28;20292;-84
2021/04/16 06:09:52;;;;;;;13.20;9.60;;;8.50;78.70;;;;;;5029390;28;20215;-85
2021/04/16 06:12:20;;;;;;;16.00;11.03;;;8.60;78.10;;;;;;5033768;28;20222;-84
2021/04/16 06:14:48;;;;;;;15.13;10.87;;;8.90;77.80;;;;;;5028408;28;20304;-83
2021/04/16 06:17:18;;;;;;;13.47;10.03;;;9.10;77.50;;;;;;5030949;28;20605;-84
2021/04/16 06:19:48;;;;;;;12.93;8.70;;;9.30;76.80;;;;;;5016437;28;20275;-84
2021/04/16 06:22:20;;;;;;;12.20;9.00;;;9.50;75.80;;;;;;5034173;28;20211;-84
2021/04/16 06:24:49;;;;;;;10.00;8.93;;;9.70;74.70;;;;;;5038249;28;20639;-84
2021/04/16 06:27:18;;;;;;;15.27;9.60;;;9.90;74.40;;;;;;5035071;28;20237;-84
2021/04/16 06:29:45;;;;;;;11.80;10.30;;;10.00;73.80;;;;;;5027168;28;20263;-84
2021/04/16 06:32:14;;;;;;;14.77;10.43;;;10.20;73.60;;;;;;5024599;28;20294;-84
2021/04/16 06:34:42;;;;;;;13.43;9.80;;;10.30;73.50;;;;;;5035247;28;20207;-84
2021/04/16 06:37:09;;;;;;;13.27;8.80;;;10.50;73.40;;;;;;5035070;28;20698;-84
2021/04/16 06:39:39;;;;;;;14.90;9.57;;;10.60;73.10;;;;;;5037814;28;20216;-84
2021/04/16 06:42:17;;;;;;;13.40;9.67;;;10.70;72.30;;;;;;5033453;28;20211;-85
2021/04/16 06:44:46;;;;;;;12.43;9.57;;;10.90;71.30;;;;;;5029709;28;20222;-85
2021/04/16 06:47:32;;;;;;;10.63;9.17;;;11.00;70.00;;;;;;5027531;28;20628;-84
2021/04/16 06:50:00;;;;;;;13.17;10.70;;;11.10;69.50;;;;;;5036999;28;20285;-84
2021/04/16 06:52:37;;;;;;;10.37;8.83;;;11.30;69.70;;;;;;5035210;28;20543;-85
2021/04/16 06:55:18;;;;;;;13.77;9.23;;;11.30;68.60;;;;;;5033321;28;20225;-85
2021/04/16 06:57:55;;;;;;;9.93;8.37;;;11.40;66.50;;;;;;5027149;28;20215;-85
2021/04/16 07:00:42;;;;;;;12.10;9.83;;;11.40;65.20;;;;;;5027808;28;20233;-85
2021/04/16 07:03:29;;;;;;;13.87;10.13;;;11.40;65.20;;;;;;5032055;28;20210;-84
2021/04/16 07:06:25;;;;;;;12.73;9.17;;;11.40;63.90;;;;;;5029159;28;20226;-85
2021/04/16 07:09:10;;;;;;;12.43;10.80;;;11.50;64.10;;;;;;5023016;28;20293;-85
2021/04/16 07:11:44;;;;;;;14.23;10.10;;;11.70;64.00;;;;;;5034061;28;20534;-85
2021/04/16 07:14:26;;;;;;;11.80;10.37;;;11.90;62.90;;;;;;5046976;28;20261;-85
2021/04/16 07:16:55;;;;;;;13.67;10.97;;;11.90;62.20;;;;;;5047774;28;20210;-84
2021/04/16 07:19:27;;;;;;;17.20;10.90;;;11.80;61.80;;;;;;5035026;28;20222;-84
2021/04/16 07:22:05;;;;;;;15.03;10.87;;;11.90;62.50;;;;;;5030603;28;20234;-85
2021/04/16 07:24:33;;;;;;;15.20;11.87;;;12.10;61.40;;;;;;5031970;28;20214;-85
2021/04/16 07:27:34;;;;;;;17.60;10.90;;;12.00;60.80;;;;;;5033691;28;20214;-86
2021/04/16 07:30:07;;;;;;;13.03;10.73;;;12.00;61.50;;;;;;5036816;28;20297;-84
2021/04/16 07:32:40;;;;;;;13.73;11.37;;;12.00;61.60;;;;;;5036404;28;20241;-84
2021/04/16 07:35:41;;;;;;;13.37;11.93;;;12.00;62.60;;;;;;5038465;28;20215;-82
2021/04/16 07:38:26;;;;;;;14.20;12.73;;;12.10;62.70;;;;;;5038465;28;20226;-83
2021/04/16 07:41:14;;;;;;;18.27;11.90;;;12.30;62.50;;;;;;5047099;28;20222;-84
2021/04/16 07:43:41;;;;;;;13.77;11.90;;;12.60;62.40;;;;;;5037130;28;20587;-83
2021/04/16 07:46:40;;;;;;;13.70;11.53;;;12.80;62.40;;;;;;5033398;28;20236;-84
2021/04/16 07:49:10;;;;;;;13.77;11.00;;;12.90;60.70;;;;;;4980852;28;20216;-86
2021/04/16 07:51:37;;;;;;;11.77;10.57;;;13.00;60.40;;;;;;4967363;28;20303;-86
2021/04/16 07:54:14;;;;;;;16.33;11.63;;;12.90;59.00;;;;;;4959238;28;20221;-86
2021/04/16 07:56:42;;;;;;;15.40;11.53;;;12.80;60.20;;;;;;4960132;28;20217;-85
2021/04/16 07:59:15;;;;;;;12.97;11.03;;;12.90;59.90;;;;;;4991073;28;20306;-86
2021/04/16 08:01:45;;;;;;;13.60;11.63;;;12.90;60.40;;;;;;5031224;28;20988;-84
2021/04/16 08:04:30;;;;;;;12.30;10.93;;;12.90;59.90;;;;;;5034379;28;20265;-85
2021/04/16 08:07:18;;;;;;;13.17;11.60;;;13.00;60.50;;;;;;5038162;28;20234;-83
2021/04/16 08:09:45;;;;;;;12.40;11.10;;;13.10;61.50;;;;;;5037121;28;20265;-82
2021/04/16 08:12:16;;;;;;;13.73;10.93;;;13.30;61.00;;;;;;5035939;28;20214;-83
2021/04/16 08:14:44;;;;;;;14.57;12.20;;;13.40;59.90;;;;;;5036075;28;20207;-84
2021/04/16 08:17:30;;;;;;;12.27;11.00;;;13.50;61.10;;;;;;5036119;28;20215;-84
2021/04/16 08:20:15;;;;;;;12.47;10.03;;;13.70;60.30;;;;;;5041610;28;20238;-85
2021/04/16 08:23:06;;;;;;;12.13;9.97;;;13.90;58.90;;;;;;5041469;28;20274;-85
2021/04/16 08:25:38;;;;;;;14.33;11.00;;;13.90;57.70;;;;;;5051143;28;20553;-84
2021/04/16 08:28:14;;;;;;;12.87;11.30;;;14.00;58.00;;;;;;5035819;28;20206;-85
2021/04/16 08:31:04;;;;;;;13.87;11.70;;;14.10;58.10;;;;;;5032083;28;20215;-86
2021/04/16 08:33:43;;;;;;;11.20;10.07;;;14.40;58.70;;;;;;5052433;28;20283;-84
2021/04/16 08:36:32;;;;;;;14.50;11.07;;;14.60;57.80;;;;;;5038780;28;20222;-84
2021/04/16 08:39:17;;;;;;;16.03;14.40;;;14.90;56.00;;;;;;5035835;28;20219;-85
2021/04/16 08:41:54;;;;;;;10.40;9.23;;;14.90;56.30;;;;;;5029693;28;20761;-85
2021/04/16 08:44:22;;;;;;;10.90;8.80;;;15.10;56.40;;;;;;5033750;28;20311;-84
2021/04/16 08:46:51;;;;;;;10.73;9.70;;;15.20;55.00;;;;;;5038281;28;20214;-85
2021/04/16 08:49:24;;;;;;;11.27;9.53;;;15.40;54.20;;;;;;5041343;28;20257;-84
2021/04/16 08:52:18;;;;;;;10.93;8.87;;;15.50;54.50;;;;;;5038891;28;20208;-84
2021/04/16 08:54:48;;;;;;;10.17;8.60;;;15.50;54.20;;;;;;5026213;28;20226;-84
2021/04/16 08:57:30;;;;;;;9.30;7.20;;;15.60;52.60;;;;;;5040416;28;20245;-83
2021/04/16 09:00:10;;;;;;;9.77;8.43;;;15.70;53.10;;;;;;5048210;28;20257;-83
2021/04/16 09:02:52;;;;;;;10.50;7.90;;;15.90;54.30;;;;;;5036892;28;20236;-84
2021/04/16 09:05:25;;;;;;;10.40;8.67;;;16.00;53.40;;;;;;5042636;28;20261;-85
2021/04/16 09:08:08;;;;;;;11.23;8.80;;;15.90;53.10;;;;;;5037659;28;20776;-84
2021/04/16 09:10:46;;;;;;;10.60;8.27;;;15.80;53.00;;;;;;5031608;28;20216;-84
2021/04/16 09:13:34;;;;;;;10.03;8.70;;;15.60;52.90;;;;;;5031068;28;20619;-84
2021/04/16 09:16:21;;;;;;;8.70;7.80;;;15.50;53.90;;;;;;5057719;28;20206;-85
2021/04/16 09:18:51;;;;;;;7.13;6.43;;;15.30;52.80;;;;;;5041859;28;20222;-84
2021/04/16 09:21:21;;;;;;;10.90;8.47;;;15.40;52.20;;;;;;5038918;28;20300;-84
2021/04/16 09:23:47;;;;;;;8.07;7.30;;;15.30;51.80;;;;;;5033596;28;20234;-83
2021/04/16 09:26:48;;;;;;;8.03;7.23;;;15.40;54.10;;;;;;5056510;28;20222;-83
2021/04/16 09:29:27;;;;;;;8.13;5.67;;;15.70;53.30;;;;;;5014496;28;20985;-83
2021/04/16 09:32:04;;;;;;;8.77;6.33;;;16.10;51.80;;;;;;5038729;28;20301;-84
2021/04/16 09:34:49;;;;;;;7.90;7.13;;;16.10;49.90;;;;;;5057236;28;20322;-85
2021/04/16 09:37:43;;;;;;;9.17;7.53;;;15.90;50.40;;;;;;5039035;28;20597;-86
2021/04/16 09:40:19;;;;;;;9.00;7.47;;;15.90;52.00;;;;;;5037943;28;20219;-82
2021/04/16 09:42:45;;;;;;;8.03;7.23;;;16.10;51.40;;;;;;5041404;28;20600;-83
2021/04/16 09:45:34;;;;;;;7.40;6.60;;;16.30;51.20;;;;;;5033701;28;20213;-84
2021/04/16 09:48:04;;;;;;;7.90;7.20;;;16.40;49.80;;;;;;5047760;28;20221;-83
2021/04/16 09:50:41;;;;;;;9.23;7.23;;;16.50;51.00;;;;;;5036006;28;20547;-83
2021/04/16 09:53:33;;;;;;;10.57;7.47;;;16.70;50.40;;;;;;5035007;28;20630;-85
2021/04/16 09:56:01;;;;;;;8.37;6.20;;;16.70;49.20;;;;;;5029691;28;20222;-83
2021/04/16 09:58:31;;;;;;;12.77;7.63;;;16.80;48.20;;;;;;5050900;28;20808;-83
2021/04/16 10:01:02;;;;;;;8.77;7.00;;;17.10;49.80;;;;;;5053158;28;20227;-85
2021/04/16 10:03:40;;;;;;;6.57;5.90;;;17.30;48.90;;;;;;5036684;28;20214;-83
2021/04/16 10:06:31;;;;;;;6.43;5.53;;;17.50;46.70;;;;;;5031030;28;20213;-84
2021/04/16 10:09:15;;;;;;;6.97;6.17;;;17.40;45.60;;;;;;5036491;28;20659;-84
2021/04/16 10:12:01;;;;;;;7.00;6.40;;;17.10;45.10;;;;;;5038419;28;20245;-83
2021/04/16 10:14:34;;;;;;;7.50;6.73;;;16.90;46.70;;;;;;5034227;28;20211;-85
2021/04/16 10:17:19;;;;;;;7.97;5.30;;;16.90;47.50;;;;;;5028968;28;20305;-85
2021/04/16 10:19:50;;;;;;;9.73;5.90;;;17.20;45.50;;;;;;5034159;28;20210;-83
2021/04/16 10:22:20;;;;;;;6.53;5.90;;;17.20;44.70;;;;;;5042592;28;20233;-83
2021/04/16 12:40:24;;;;;;;6.40;2.30;;;15.90;45.40;;;;;;5039276;28;20223;-82
2021/04/16 12:42:55;;;;;;;4.07;2.87;;;16.00;46.30;;;;;;5044780;28;20265;-83
2021/04/16 12:45:26;;;;;;;5.10;2.63;;;16.10;46.60;;;;;;5029218;28;20314;-83
2021/04/16 12:48:04;;;;;;;2.33;2.13;;;16.20;47.20;;;;;;5038641;28;20211;-84
2021/04/16 12:50:35;;;;;;;2.67;2.47;;;16.30;46.20;;;;;;5045669;28;20219;-82
2021/04/16 12:53:05;;;;;;;4.73;2.60;;;16.30;46.60;;;;;;5038483;28;20241;-83
2021/04/16 12:55:42;;;;;;;4.07;2.30;;;16.20;47.50;;;;;;5045184;28;20207;-84
2021/04/16 12:58:14;;;;;;;4.27;2.20;;;16.20;47.30;;;;;;5046041;28;20693;-84
2021/04/16 13:00:45;;;;;;;4.30;2.37;;;16.20;48.10;;;;;;5039541;28;20315;-82
2021/04/16 13:03:19;;;;;;;9.30;2.23;;;16.10;48.50;;;;;;5046719;28;20210;-84
2021/04/16 13:05:48;;;;;;;3.60;2.30;;;15.90;48.30;;;;;;5030195;28;20564;-83
2021/04/16 13:08:16;;;;;;;3.63;1.90;;;15.70;48.20;;;;;;5035496;28;20239;-84
2021/04/16 13:10:42;;;;;;;1.93;1.83;;;15.60;48.60;;;;;;5037175;28;20251;-83
2021/04/16 13:13:13;;;;;;;2.50;2.03;;;15.50;48.20;;;;;;5024290;28;20706;-83
2021/04/16 13:15:40;;;;;;;3.60;2.20;;;15.50;49.30;;;;;;5022967;28;20299;-84
2021/04/16 13:18:14;;;;;;;4.33;1.90;;;15.50;49.10;;;;;;5034677;28;20645;-84
2021/04/16 13:20:46;;;;;;;5.00;2.13;;;15.50;48.80;;;;;;5033759;28;20384;-82
2021/04/16 13:23:13;;;;;;;3.10;2.10;;;15.40;48.20;;;;;;5034311;28;20217;-82
2021/04/16 13:25:40;;;;;;;4.27;2.13;;;15.40;48.00;;;;;;5026515;28;20243;-82
2021/04/16 13:28:08;;;;;;;2.17;1.73;;;15.40;47.90;;;;;;5036256;28;20334;-84
2021/04/16 13:30:38;;;;;;;3.27;2.20;;;15.50;47.50;;;;;;5031677;28;20219;-83
2021/04/16 13:33:17;;;;;;;3.20;1.90;;;15.50;47.50;;;;;;5035084;28;20253;-84
2021/04/16 13:35:54;;;;;;;4.70;2.00;;;15.50;47.60;;;;;;5026211;28;20298;-82
2021/04/16 13:38:30;;;;;;;5.30;1.90;;;15.50;47.50;;;;;;5027615;28;20302;-84
2021/04/16 13:41:00;;;;;;;2.30;1.60;;;15.50;47.80;;;;;;5021325;28;20322;-83
2021/04/16 13:43:29;;;;;;;1.80;1.60;;;15.50;47.60;;;;;;5026829;28;20211;-83
2021/04/16 13:46:00;;;;;;;2.10;1.90;;;15.60;47.70;;;;;;5022918;28;20633;-82
2021/04/16 13:48:27;;;;;;;5.73;2.30;;;15.60;46.20;;;;;;5028033;28;20262;-82
2021/04/16 13:50:55;;;;;;;5.83;2.37;;;15.70;47.10;;;;;;5031830;28;20215;-81
2021/04/16 13:53:22;;;;;;;1.97;1.73;;;15.70;47.10;;;;;;5016358;28;20588;-83
2021/04/16 13:55:50;;;;;;;4.27;2.23;;;15.70;46.70;;;;;;5022801;28;20214;-83
2021/04/16 13:58:17;;;;;;;3.20;1.80;;;15.70;46.40;;;;;;5027247;28;20216;-82
2021/04/16 14:00:50;;;;;;;4.23;3.00;;;15.60;46.90;;;;;;5036512;28;20231;-82
2021/04/16 14:04:02;;;;;;;3.23;1.80;;;15.60;46.60;;;;;;4974871;28;20385;-82
2021/04/16 14:06:34;;;;;;;2.53;2.10;;;15.70;45.40;;;;;;4962719;28;20312;-83
2021/04/16 14:09:08;;;;;;;2.90;1.80;;;15.90;45.10;;;;;;4962754;28;20623;-83
2021/04/16 14:11:36;;;;;;;3.37;2.07;;;16.00;45.50;;;;;;4967161;28;20562;-84
2021/04/16 14:14:06;;;;;;;2.80;2.10;;;16.20;45.20;;;;;;4967823;28;20316;-84
2021/04/16 14:16:36;;;;;;;2.20;2.10;;;16.30;44.30;;;;;;4961887;28;20217;-81
2021/04/16 14:19:08;;;;;;;4.53;2.10;;;16.30;43.10;;;;;;4971157;28;20219;-82
2021/04/16 14:21:39;;;;;;;1.70;1.60;;;16.30;42.90;;;;;;5001296;28;20326;-81
2021/04/16 14:24:13;;;;;;;2.60;1.87;;;16.20;43.10;;;;;;5007723;28;20215;-82
2021/04/16 14:26:41;;;;;;;3.30;2.10;;;16.20;44.00;;;;;;5030501;28;20299;-82
2021/04/16 14:29:08;;;;;;;1.83;1.53;;;16.20;43.40;;;;;;5028560;28;20219;-84
2021/04/16 14:31:39;;;;;;;4.27;2.00;;;16.20;43.70;;;;;;5029002;28;20219;-81
2021/04/16 14:34:08;;;;;;;2.57;1.80;;;16.30;43.40;;;;;;5030825;28;20206;-79
2021/04/16 14:36:35;;;;;;;6.17;2.10;;;16.30;43.80;;;;;;5033285;28;20672;-80
2021/04/16 14:39:06;;;;;;;3.73;2.20;;;16.30;44.00;;;;;;5015691;28;20227;-80
2021/04/16 14:41:34;;;;;;;4.37;2.10;;;16.40;42.90;;;;;;5019396;28;20235;-81
2021/04/16 14:44:03;;;;;;;3.87;1.60;;;16.30;42.50;;;;;;5012861;28;20234;-82
2021/04/16 14:46:30;;;;;;;2.90;1.60;;;16.30;42.70;;;;;;5006732;28;20208;-81
2021/04/16 14:48:58;;;;;;;9.07;1.90;;;16.40;42.80;;;;;;5024476;28;20217;-81
2021/04/16 14:51:27;;;;;;;3.00;1.90;;;16.50;43.00;;;;;;5034140;28;20306;-82
2021/04/16 14:54:11;;;;;;;2.20;1.77;;;16.60;42.50;;;;;;5035272;28;20564;-84
2021/04/16 14:56:38;;;;;;;3.63;1.80;;;16.80;42.60;;;;;;5022174;28;20207;-83
2021/04/16 14:59:15;;;;;;;3.13;2.10;;;16.70;43.00;;;;;;5035424;28;20611;-80
2021/04/16 15:01:42;;;;;;;2.70;1.80;;;16.70;43.70;;;;;;5020521;28;20604;-82
2021/04/16 15:04:08;;;;;;;3.17;1.67;;;16.60;43.40;;;;;;5030713;28;20208;-82
2021/04/16 15:06:36;;;;;;;2.60;2.07;;;16.50;43.10;;;;;;5023072;28;20238;-82
2021/04/16 15:09:13;;;;;;;2.10;1.97;;;16.30;43.50;;;;;;5014035;28;20210;-81
2021/04/16 15:11:42;;;;;;;2.27;1.60;;;16.10;44.00;;;;;;5042236;28;20210;-81
2021/04/16 15:14:15;;;;;;;5.60;2.20;;;15.90;43.70;;;;;;5055786;28;20208;-83
2021/04/16 15:16:45;;;;;;;4.20;2.20;;;15.60;45.00;;;;;;5051237;28;20206;-81
2021/04/16 15:19:32;;;;;;;4.03;2.53;;;15.40;46.60;;;;;;5032260;28;20287;-82
2021/04/16 15:22:08;;;;;;;5.30;2.20;;;15.20;48.20;;;;;;5061366;28;20320;-81
2021/04/16 15:24:41;;;;;;;5.57;2.73;;;15.00;48.40;;;;;;5044730;28;20210;-81